Time;durP1;ratioP1;P1;durP2;ratioP2;P2;SDS_P1;SDS_P2;PMS_P1;PMS_P2;Temp;Humidity;BMP_temperature;BMP_pressure;BME280_temperature;BME280_humidity;BME280_pressure;Samples;Min_cycle;Max_cycle;Signal;HPM_P1;HPM_P2
2024/03/13 00:03:25;;;;;;;7.88;7.07;;;;;;;7.95;93.92;150671.06;10500377;28;20115;-72
2024/03/13 00:08:27;;;;;;;7.57;6.88;;;;;;;7.89;93.99;150655.59;10500762;28;20032;-72
2024/03/13 00:13:29;;;;;;;7.70;6.97;;;;;;;7.92;94.89;150662.03;10501122;28;20457;-72
2024/03/13 00:18:31;;;;;;;7.72;6.82;;;;;;;7.76;95.34;150623.41;10500043;28;20068;-72
2024/03/13 00:23:32;;;;;;;7.82;7.13;;;;;;;7.88;95.18;150653.03;10499638;28;20063;-72
2024/03/13 00:28:34;;;;;;;8.02;7.20;;;;;;;8.02;94.09;150687.84;10500216;28;20032;-71
2024/03/13 00:33:38;;;;;;;7.63;6.82;;;;;;;7.98;94.88;150677.53;10481232;28;20475;-71
2024/03/13 00:38:40;;;;;;;7.50;6.78;;;;;;;8.16;93.07;150722.63;10499121;28;20115;-71
2024/03/13 00:43:42;;;;;;;7.15;6.45;;;;;;;8.12;93.74;150713.59;10498983;28;20153;-71
2024/03/13 00:48:44;;;;;;;7.63;6.75;;;;;;;8.05;94.20;150695.53;10481188;28;20032;-72
2024/03/13 00:53:46;;;;;;;7.57;6.78;;;;;;;7.97;94.27;150676.22;10499061;28;20049;-71
2024/03/13 00:58:49;;;;;;;6.95;6.25;;;;;;;8.02;94.82;150689.13;10499014;28;20040;-71
2024/03/13 01:03:51;;;;;;;7.78;7.03;;;;;;;7.98;94.87;150677.53;10498635;28;20463;-72
2024/03/13 01:08:53;;;;;;;7.93;7.15;;;;;;;7.90;95.08;150658.19;10499728;28;20043;-71
2024/03/13 01:13:55;;;;;;;7.50;6.80;;;;;;;7.68;97.32;150602.78;10497935;28;20049;-71
2024/03/13 01:18:59;;;;;;;7.82;6.80;;;;;;;8.05;95.44;150695.53;10498608;28;20036;-73
2024/03/13 01:24:00;;;;;;;8.95;8.05;;;;;;;8.20;94.53;150734.22;10480145;28;20068;-72
2024/03/13 01:29:02;;;;;;;8.35;7.55;;;;;;;8.01;95.14;150686.53;10498297;28;20567;-72
2024/03/13 01:34:04;;;;;;;8.45;7.65;;;;;;;7.79;97.08;150631.13;10497723;28;20047;-70
2024/03/13 01:39:06;;;;;;;8.55;7.45;;;;;;;7.75;97.20;150619.53;10498059;28;20052;-70
2024/03/13 02:05:36;;;;;;;9.30;7.28;;;;;;;7.68;100.00;150601.50;10369607;28;20050;-72
2024/03/13 02:10:38;;;;;;;7.68;6.97;;;;;;;7.66;99.85;150596.31;10369201;28;20054;-72
2024/03/13 02:15:41;;;;;;;6.95;6.28;;;;;;;7.61;100.00;150583.44;10368863;28;20050;-71
2024/03/13 02:20:46;;;;;;;7.05;6.35;;;;;;;7.57;100.00;150575.75;10368928;28;20056;-71
2024/03/13 02:25:51;;;;;;;8.32;7.25;;;;;;;7.66;99.75;150597.66;10465219;28;20063;-72
2024/03/13 02:30:53;;;;;;;7.32;6.63;;;;;;;7.55;100.00;150569.28;10505321;28;20083;-70
2024/03/13 02:35:55;;;;;;;8.32;6.93;;;;;;;7.73;99.97;150614.38;10504134;28;20040;-71
2024/03/13 02:40:57;;;;;;;8.13;7.32;;;;;;;7.73;99.96;150614.38;10504439;28;20454;-71
2024/03/13 02:45:58;;;;;;;8.45;7.65;;;;;;;7.54;100.00;150568.00;10503864;28;20049;-71
2024/03/13 02:51:00;;;;;;;8.68;7.82;;;;;;;7.66;100.00;150597.66;10503934;28;20448;-72
2024/03/13 02:56:02;;;;;;;8.45;7.65;;;;;;;7.52;100.00;150561.53;10503630;28;20036;-72
2024/03/13 03:01:04;;;;;;;9.98;7.97;;;;;;;7.60;100.00;150582.16;10504439;28;20127;-72
2024/03/13 03:06:06;;;;;;;7.93;7.13;;;;;;;7.55;100.00;150570.56;10503257;28;20067;-71
2024/03/13 03:11:08;;;;;;;9.07;7.43;;;;;;;7.46;100.00;150546.09;10485185;28;20080;-71
2024/03/13 03:16:10;;;;;;;8.52;7.65;;;;;;;7.57;100.00;150575.75;10502656;28;20040;-72
2024/03/13 03:21:13;;;;;;;9.23;8.25;;;;;;;7.56;100.00;150573.13;10485057;28;20044;-71
2024/03/13 03:26:20;;;;;;;9.13;8.18;;;;;;;7.58;99.18;150578.31;10502143;28;20515;-71
2024/03/13 03:31:23;;;;;;;8.88;8.00;;;;;;;7.55;99.43;150570.56;10502404;28;20040;-71
2024/03/13 03:36:25;;;;;;;9.20;8.30;;;;;;;7.75;97.26;150619.53;10501937;28;20080;-71
2024/03/13 03:41:27;;;;;;;9.13;8.23;;;;;;;7.66;97.46;150596.31;10501932;28;20048;-70
2024/03/13 03:46:29;;;;;;;8.63;7.70;;;;;;;7.61;98.00;150584.72;10501864;28;20036;-71
2024/03/13 03:51:31;;;;;;;9.05;8.10;;;;;;;7.57;97.63;150574.47;10501815;28;20356;-70
2024/03/13 03:56:38;;;;;;;8.82;7.95;;;;;;;7.49;97.58;150555.13;10501524;28;20049;-70
2024/03/13 04:01:44;;;;;;;8.75;7.95;;;;;;;7.26;99.38;150495.84;10500607;28;20060;-71
2024/03/13 04:06:46;;;;;;;8.98;8.07;;;;;;;7.09;99.37;150453.38;10501316;28;20043;-70
2024/03/13 04:11:48;;;;;;;8.52;7.72;;;;;;;6.89;100.00;150403.16;10500298;28;20048;-72
2024/03/13 04:16:50;;;;;;;8.20;7.35;;;;;;;6.72;100.00;150360.66;10483045;28;20064;-71
2024/03/13 04:21:51;;;;;;;10.10;8.52;;;;;;;6.53;100.00;150311.75;10500797;28;20483;-71
2024/03/13 04:26:53;;;;;;;9.02;7.68;;;;;;;6.42;100.00;150283.41;10500222;28;20044;-72
2024/03/13 04:31:57;;;;;;;8.27;7.43;;;;;;;6.36;100.00;150268.00;10482098;28;20060;-70
2024/03/13 04:36:59;;;;;;;8.05;7.28;;;;;;;6.22;100.00;150233.25;10499810;28;20568;-71
2024/03/13 04:42:01;;;;;;;7.93;7.13;;;;;;;6.13;100.00;150211.38;10481449;28;20048;-72
2024/03/13 04:47:03;;;;;;;7.93;7.22;;;;;;;6.03;100.00;150185.66;10499461;28;20041;-71
2024/03/13 04:52:05;;;;;;;9.35;8.45;;;;;;;5.95;100.00;150166.34;10498200;28;20052;-71
2024/03/13 04:57:06;;;;;;;9.02;7.85;;;;;;;5.91;100.00;150156.00;10499044;28;20059;-71
2024/03/13 05:02:08;;;;;;;9.50;8.15;;;;;;;5.79;100.00;150125.13;10498838;28;20044;-71
2024/03/13 05:07:12;;;;;;;9.55;8.23;;;;;;;6.06;100.00;150193.34;10499077;28;20044;-70
2024/03/13 05:12:14;;;;;;;9.60;7.53;;;;;;;5.76;100.00;150118.72;10499061;28;20507;-71
2024/03/13 05:17:16;;;;;;;9.05;8.15;;;;;;;5.66;100.00;150091.66;10499733;28;20091;-70
2024/03/13 05:22:19;;;;;;;8.80;7.90;;;;;;;5.47;100.00;150044.09;10500237;28;20385;-72
2024/03/13 05:27:21;;;;;;;8.50;7.63;;;;;;;5.46;100.00;150042.81;10481107;28;20047;-71
2024/03/13 05:32:23;;;;;;;9.82;8.82;;;;;;;5.35;100.00;150014.50;10498833;28;20048;-71
2024/03/13 05:37:25;;;;;;;10.48;8.82;;;;;;;5.27;100.00;149993.97;10499203;28;20075;-72
2024/03/13 05:42:26;;;;;;;8.88;7.88;;;;;;;5.24;100.00;149987.53;10498665;28;20072;-71
2024/03/13 05:47:28;;;;;;;10.70;9.68;;;;;;;5.26;100.00;149992.63;10498569;28;20090;-70
2024/03/13 05:52:30;;;;;;;10.50;9.00;;;;;;;5.42;100.00;150031.25;10498358;28;20090;-71
2024/03/13 05:57:32;;;;;;;11.15;9.43;;;;;;;5.53;100.00;150060.84;10498765;28;20546;-71
2024/03/13 06:02:34;;;;;;;8.90;7.97;;;;;;;5.53;100.00;150060.84;10505183;28;20041;-70
2024/03/13 06:07:37;;;;;;;9.70;8.80;;;;;;;5.41;100.00;150028.69;10506156;28;20380;-71
2024/03/13 06:12:39;;;;;;;9.52;8.52;;;;;;;5.71;100.00;150105.84;10506752;28;20135;-71
2024/03/13 06:17:41;;;;;;;11.25;9.07;;;;;;;6.08;100.00;150198.53;10505612;28;20119;-71
2024/03/13 06:22:43;;;;;;;10.30;9.30;;;;;;;7.15;100.00;150467.53;10505162;28;20106;-71
2024/03/13 06:27:45;;;;;;;8.55;7.68;;;;;;;7.87;96.53;150650.44;10486943;28;20499;-71
2024/03/13 06:32:47;;;;;;;8.48;7.57;;;;;;;7.92;94.94;150662.03;10504883;28;20390;-72
2024/03/13 06:37:49;;;;;;;8.43;7.55;;;;;;;7.90;93.54;150658.19;10505081;28;20037;-72
2024/03/13 06:42:51;;;;;;;8.50;7.60;;;;;;;8.05;90.57;150696.81;10504075;28;20140;-71
2024/03/13 06:47:53;;;;;;;9.35;6.95;;;;;;;7.95;92.67;150671.06;10504254;28;20090;-72
2024/03/13 06:52:55;;;;;;;8.20;7.40;;;;;;;8.02;91.97;150687.84;10469840;28;20060;-71
2024/03/13 06:57:57;;;;;;;9.10;8.27;;;;;;;8.02;91.75;150689.13;10462222;28;20036;-72
2024/03/13 07:03:01;;;;;;;8.07;7.32;;;;;;;8.19;91.07;150730.31;10444322;28;20068;-71
2024/03/13 07:08:03;;;;;;;10.10;8.35;;;;;;;8.65;85.92;150847.69;10460759;28;20045;-71
2024/03/13 07:13:06;;;;;;;9.10;8.20;;;;;;;8.53;87.39;150818.03;10460266;28;20056;-71
2024/03/13 07:18:08;;;;;;;8.63;7.28;;;;;;;8.85;85.21;150897.97;10461869;28;20032;-71
2024/03/13 07:23:10;;;;;;;8.88;7.53;;;;;;;9.06;83.51;150952.13;10460969;28;20100;-71
2024/03/13 07:28:12;;;;;;;9.75;8.20;;;;;;;8.72;86.19;150865.75;10461068;28;20041;-71
2024/03/13 07:33:14;;;;;;;9.88;8.77;;;;;;;8.97;86.40;150927.63;10490359;28;20480;-72
2024/03/13 07:38:16;;;;;;;9.75;8.20;;;;;;;9.15;84.71;150972.78;10502180;28;20055;-71
2024/03/13 07:43:18;;;;;;;9.82;8.82;;;;;;;9.38;82.28;151030.81;10483950;28;20059;-71
2024/03/13 07:48:20;;;;;;;11.75;8.48;;;;;;;9.41;81.22;151039.84;10484183;28;20048;-71
2024/03/13 07:53:33;;;;;;;9.65;8.57;;;;;;;9.58;79.91;151082.44;10503149;28;20055;-73
2024/03/13 07:58:35;;;;;;;11.07;9.43;;;;;;;9.45;80.57;151050.16;10503279;28;20036;-71
2024/03/13 08:03:37;;;;;;;13.20;9.68;;;;;;;9.59;78.97;151085.00;10500738;28;20048;-71
2024/03/13 08:08:38;;;;;;;10.57;8.85;;;;;;;9.17;81.11;150977.94;10500693;28;20036;-71
2024/03/13 08:14:01;;;;;;;13.93;8.88;;;;;;;9.21;82.42;150988.22;10500414;28;20033;-71
2024/03/13 08:19:22;;;;;;;11.50;9.20;;;;;;;9.94;79.35;151172.75;10499799;28;20047;-71
2024/03/13 08:24:41;;;;;;;12.18;9.32;;;;;;;10.29;75.72;151261.84;10481114;28;20070;-71
2024/03/13 08:30:01;;;;;;;8.50;7.63;;;;;;;10.21;75.39;151242.44;10484430;28;20408;-71
2024/03/13 08:35:21;;;;;;;12.88;8.45;;;;;;;10.23;74.50;151247.63;10499898;28;20487;-70
2024/03/13 08:40:41;;;;;;;9.60;7.32;;;;;;;10.57;73.43;151334.13;10485033;28;20046;-71
2024/03/13 08:46:00;;;;;;;9.07;7.82;;;;;;;10.91;72.09;151419.38;10431688;28;20083;-71
2024/03/13 08:51:19;;;;;;;10.05;8.93;;;;;;;11.08;72.62;151462.00;10417529;28;20037;-72
2024/03/13 08:56:39;;;;;;;9.60;8.60;;;;;;;11.63;69.25;151602.81;10419911;28;20116;-71
2024/03/13 09:01:59;;;;;;;11.85;8.20;;;;;;;11.67;68.29;151610.56;10442123;28;20033;-72
2024/03/13 09:07:18;;;;;;;9.18;8.27;;;;;;;11.94;67.56;151680.41;10457447;28;20055;-72
2024/03/13 09:12:20;;;;;;;8.93;8.10;;;;;;;11.45;68.84;151556.31;10457129;28;20037;-71
2024/03/13 09:17:22;;;;;;;9.27;8.38;;;;;;;11.79;67.96;151641.59;10457305;28;20037;-71
2024/03/13 09:22:24;;;;;;;9.35;8.35;;;;;;;11.42;68.84;151548.59;10457516;28;20040;-71
2024/03/13 09:27:25;;;;;;;9.75;8.45;;;;;;;11.28;69.21;151513.66;10457053;28;20045;-71
2024/03/13 09:32:28;;;;;;;8.55;7.47;;;;;;;11.01;70.92;151445.19;10457733;28;20043;-71
2024/03/13 09:37:31;;;;;;;10.27;9.15;;;;;;;11.24;71.51;151502.03;10456239;28;20065;-71
2024/03/13 09:42:37;;;;;;;9.13;8.15;;;;;;;10.98;71.45;151437.47;10454914;28;20041;-71
2024/03/13 09:47:39;;;;;;;9.05;7.55;;;;;;;11.32;68.99;151522.72;10456065;28;20115;-72
2024/03/13 09:52:42;;;;;;;8.50;7.63;;;;;;;10.97;70.76;151434.88;10438467;28;20047;-72
2024/03/13 09:57:49;;;;;;;10.05;8.27;;;;;;;11.19;69.59;151489.13;10456115;28;20091;-72
2024/03/13 10:02:54;;;;;;;8.43;7.57;;;;;;;11.24;70.54;151503.31;10456242;28;20443;-72
2024/03/13 10:08:01;;;;;;;9.77;8.15;;;;;;;11.16;69.40;151481.41;10438238;28;20435;-71
2024/03/13 10:13:03;;;;;;;9.50;8.60;;;;;;;11.33;69.98;151525.28;10473902;28;20040;-72
2024/03/13 10:18:13;;;;;;;9.63;8.55;;;;;;;11.58;68.60;151588.59;10498483;28;20116;-72
2024/03/13 10:23:19;;;;;;;8.15;7.28;;;;;;;11.70;69.09;151619.63;10498211;28;20075;-71
2024/03/13 10:28:23;;;;;;;9.05;7.03;;;;;;;12.71;67.22;151875.66;10498271;28;20139;-72
2024/03/13 10:33:25;;;;;;;8.98;7.75;;;;;;;13.73;62.25;152133.16;10451301;28;20041;-72
2024/03/13 10:38:28;;;;;;;9.43;7.57;;;;;;;13.91;57.10;152178.44;10455498;28;20389;-71
2024/03/13 10:43:31;;;;;;;9.48;7.45;;;;;;;13.88;54.12;152171.97;10453877;28;20113;-72
2024/03/13 10:48:35;;;;;;;8.23;7.40;;;;;;;14.03;57.14;152209.47;10424613;28;20052;-72
2024/03/13 10:53:36;;;;;;;7.85;7.05;;;;;;;14.42;55.61;152307.88;10465819;28;20044;-71
2024/03/13 10:58:38;;;;;;;9.10;7.78;;;;;;;14.27;54.00;152270.34;10503526;28;20094;-71
2024/03/13 11:03:40;;;;;;;8.20;7.38;;;;;;;14.08;55.45;152223.75;10503275;28;20044;-73
2024/03/13 11:08:42;;;;;;;7.82;7.03;;;;;;;14.59;53.72;152353.25;10485197;28;20040;-71
2024/03/13 11:13:57;;;;;;;7.85;6.88;;;;;;;14.37;53.30;152296.22;10502348;28;20041;-72
2024/03/13 11:19:01;;;;;;;6.72;6.03;;;;;;;14.66;50.08;152370.13;10486319;28;20044;-72
2024/03/13 11:24:06;;;;;;;8.02;6.75;;;;;;;14.33;54.13;152285.88;10503704;28;20041;-72
2024/03/13 11:29:14;;;;;;;7.88;6.97;;;;;;;14.38;54.58;152300.09;10502884;28;20041;-72
2024/03/13 11:34:16;;;;;;;9.02;7.38;;;;;;;14.13;55.05;152236.69;10503466;28;20048;-73
2024/03/13 11:39:21;;;;;;;8.50;7.47;;;;;;;13.88;54.51;152171.97;10502144;28;20079;-71
2024/03/13 11:44:27;;;;;;;7.07;6.38;;;;;;;13.83;54.50;152159.03;10502240;28;20041;-72
2024/03/13 11:49:30;;;;;;;7.97;7.10;;;;;;;13.29;56.47;152023.16;10483835;28;20140;-71
2024/03/13 11:54:32;;;;;;;8.77;7.88;;;;;;;13.73;54.28;152133.16;10501671;28;20040;-71
2024/03/13 11:59:39;;;;;;;8.18;6.88;;;;;;;13.52;54.82;152081.38;10501575;28;20033;-72
2024/03/13 12:04:42;;;;;;;;;;;;;;;13.49;55.39;152073.59;10501747;28;20055;-72
2024/03/13 12:09:43;;;;;;;7.07;5.68;;;;;;;13.39;55.21;152047.72;10501145;28;19920;-71
2024/03/13 12:14:45;;;;;;;7.47;6.78;;;;;;;12.95;56.13;151935.13;10500532;28;20067;-71
2024/03/13 12:19:47;;;;;;;7.13;6.43;;;;;;;13.31;55.39;152028.31;10502052;28;20052;-71
2024/03/13 12:24:49;;;;;;;8.00;7.20;;;;;;;13.33;54.68;152033.50;10500570;28;20131;-72
2024/03/13 12:29:51;;;;;;;9.77;8.02;;;;;;;13.11;54.71;151976.53;10500365;28;20040;-72
2024/03/13 12:34:52;;;;;;;6.65;5.95;;;;;;;12.93;57.02;151931.28;10500052;28;20045;-72
2024/03/13 12:39:55;;;;;;;6.88;5.80;;;;;;;13.24;55.04;152010.22;10500998;28;20071;-72
2024/03/13 12:44:58;;;;;;;7.10;6.28;;;;;;;13.17;55.02;151992.06;10482328;28;20051;-72
2024/03/13 12:50:00;;;;;;;7.25;5.90;;;;;;;13.03;55.95;151957.13;10500759;28;20040;-72
2024/03/13 12:55:05;;;;;;;7.28;5.85;;;;;;;13.08;55.03;151970.06;10499295;28;20044;-72
2024/03/13 13:00:19;;;;;;;5.93;5.32;;;;;;;13.28;55.24;152019.25;10481140;28;20040;-72
2024/03/13 13:05:22;;;;;;;6.43;5.82;;;;;;;13.45;52.98;152061.94;10481725;28;20412;-73
2024/03/13 13:10:26;;;;;;;6.75;6.07;;;;;;;13.45;54.32;152061.94;10498419;28;20059;-72
2024/03/13 13:15:27;;;;;;;6.80;6.05;;;;;;;13.25;54.29;152011.50;10498552;28;20534;-72
2024/03/13 13:20:33;;;;;;;6.53;5.93;;;;;;;13.07;53.30;151967.47;10498945;28;20047;-72
2024/03/13 13:25:35;;;;;;;6.93;5.85;;;;;;;13.14;55.25;151984.28;10498659;28;20048;-72
2024/03/13 13:30:40;;;;;;;5.38;4.75;;;;;;;13.46;53.58;152065.88;10498254;28;20485;-72
2024/03/13 13:35:42;;;;;;;5.80;5.20;;;;;;;13.18;55.37;151994.63;10498272;28;20051;-72
2024/03/13 13:40:45;;;;;;;7.82;5.95;;;;;;;13.34;54.40;152036.09;10498086;28;20090;-72
2024/03/13 13:45:47;;;;;;;7.22;6.22;;;;;;;13.68;53.00;152121.50;10497980;28;20506;-72
2024/03/13 13:50:50;;;;;;;6.95;5.55;;;;;;;13.30;54.78;152024.44;10498488;28;20543;-72
2024/03/13 13:55:52;;;;;;;5.57;4.88;;;;;;;13.74;53.50;152135.72;10497745;28;20053;-72
2024/03/13 14:00:54;;;;;;;5.78;5.13;;;;;;;13.62;54.17;152105.94;10498830;28;20047;-72
2024/03/13 14:05:56;;;;;;;8.90;4.75;;;;;;;13.79;51.95;152149.97;10498087;28;20408;-72
2024/03/13 14:10:58;;;;;;;5.10;4.13;;;;;;;14.00;50.72;152203.03;10497700;28;20036;-72
2024/03/13 14:16:03;;;;;;;5.18;4.68;;;;;;;13.80;53.50;152152.53;10497890;28;20044;-72
2024/03/13 14:21:05;;;;;;;5.15;4.60;;;;;;;13.65;53.61;152112.44;10499575;28;20039;-72
2024/03/13 14:26:07;;;;;;;7.00;5.68;;;;;;;13.88;53.55;152173.25;10505434;28;20480;-72
2024/03/13 14:31:10;;;;;;;5.40;4.25;;;;;;;13.21;56.45;152001.13;10504797;28;20042;-73
2024/03/13 14:36:12;;;;;;;4.20;3.40;;;;;;;13.33;56.99;152033.50;10504465;28;20048;-73
2024/03/13 14:41:14;;;;;;;3.85;3.28;;;;;;;13.24;57.88;152008.94;10504915;28;20032;-73
2024/03/13 14:46:18;;;;;;;3.40;2.80;;;;;;;12.93;59.75;151929.97;10504772;28;20071;-71
2024/03/13 14:51:20;;;;;;;3.63;2.90;;;;;;;12.86;59.53;151913.16;10505229;28;20502;-72
2024/03/13 14:56:23;;;;;;;4.68;3.35;;;;;;;13.00;59.53;151949.34;10505193;28;20045;-72
2024/03/13 15:01:25;;;;;;;3.92;2.85;;;;;;;13.18;57.55;151994.63;10503864;28;20036;-72
2024/03/13 15:06:28;;;;;;;4.38;3.33;;;;;;;12.98;59.19;151944.19;10504452;28;20401;-72
2024/03/13 15:11:31;;;;;;;3.70;3.15;;;;;;;12.60;60.31;151847.19;10486980;28;20047;-72
2024/03/13 15:16:37;;;;;;;3.47;2.83;;;;;;;12.92;58.03;151927.34;10503845;28;20512;-72
2024/03/13 15:21:38;;;;;;;3.25;2.72;;;;;;;12.68;59.14;151866.59;10503792;28;20043;-72
2024/03/13 15:26:41;;;;;;;4.82;3.45;;;;;;;12.69;59.25;151869.16;10502931;28;20076;-72
2024/03/13 15:31:43;;;;;;;4.15;2.70;;;;;;;12.93;57.21;151931.28;10502837;28;20101;-71
2024/03/13 15:36:44;;;;;;;4.07;3.13;;;;;;;12.84;58.71;151908.00;10501725;28;20059;-72
2024/03/13 15:41:46;;;;;;;2.97;2.25;;;;;;;12.66;57.63;151861.41;10501862;28;20041;-72
2024/03/13 15:46:48;;;;;;;3.10;2.25;;;;;;;12.66;57.06;151862.72;10501875;28;20044;-72
2024/03/13 15:51:50;;;;;;;3.38;2.40;;;;;;;12.37;57.24;151789.00;10502187;28;20145;-72
2024/03/13 15:56:52;;;;;;;3.95;3.55;;;;;;;12.24;57.42;151755.38;10502654;28;20044;-72
2024/03/13 16:01:54;;;;;;;3.50;2.95;;;;;;;12.21;57.10;151748.91;10501545;28;20050;-72
2024/03/13 16:06:57;;;;;;;3.50;2.67;;;;;;;12.14;57.38;151730.84;10501159;28;20123;-72
2024/03/13 16:12:02;;;;;;;3.63;2.38;;;;;;;11.92;58.30;151675.25;10501594;28;20135;-72
2024/03/13 16:17:04;;;;;;;2.58;1.95;;;;;;;11.67;60.13;151611.88;10501340;28;20059;-72
2024/03/13 16:22:06;;;;;;;2.92;2.33;;;;;;;11.58;60.25;151589.91;10498308;28;20068;-72
2024/03/13 16:27:08;;;;;;;3.15;2.42;;;;;;;11.37;60.98;151536.91;10499595;28;20098;-71
2024/03/13 16:32:10;;;;;;;4.50;2.78;;;;;;;11.58;60.49;151589.91;10499821;28;20040;-71
2024/03/13 16:37:16;;;;;;;3.30;2.60;;;;;;;11.51;61.08;151570.50;10499742;28;20098;-71
2024/03/13 16:42:17;;;;;;;2.53;2.03;;;;;;;11.18;62.46;151487.84;10500686;28;20503;-72
2024/03/13 16:47:19;;;;;;;3.67;2.65;;;;;;;11.33;61.66;151525.28;10498972;28;20123;-72
2024/03/13 16:52:21;;;;;;;3.58;2.45;;;;;;;10.97;63.44;151433.56;10499351;28;20446;-72
2024/03/13 16:57:23;;;;;;;4.90;3.85;;;;;;;10.83;64.26;151398.72;10498789;28;20051;-72
2024/03/13 17:02:26;;;;;;;4.13;3.05;;;;;;;10.82;64.48;151396.13;10498671;28;20068;-72
2024/03/13 17:07:28;;;;;;;4.38;2.60;;;;;;;10.79;65.25;151388.38;10499141;28;20036;-72
2024/03/13 17:12:30;;;;;;;4.57;3.35;;;;;;;10.66;65.60;151356.09;10498215;28;20040;-71
2024/03/13 17:17:34;;;;;;;5.68;3.28;;;;;;;10.55;66.64;151329.00;10498633;28;20115;-72
2024/03/13 17:22:36;;;;;;;4.63;3.17;;;;;;;10.61;66.46;151343.19;10498640;28;20515;-72
2024/03/13 17:27:39;;;;;;;3.58;2.33;;;;;;;10.49;67.37;151313.53;10498303;28;20040;-72
2024/03/13 17:32:42;;;;;;;2.90;2.30;;;;;;;10.35;68.26;151277.34;10497879;28;20064;-72
2024/03/13 17:37:48;;;;;;;3.47;2.67;;;;;;;10.38;68.46;151283.81;10498570;28;20086;-72
2024/03/13 17:42:50;;;;;;;3.83;2.83;;;;;;;10.35;68.83;151277.34;10497749;28;20045;-72
2024/03/13 17:47:52;;;;;;;4.80;3.97;;;;;;;10.31;68.90;151267.00;10497336;28;20037;-72
2024/03/13 17:52:56;;;;;;;9.25;4.88;;;;;;;10.27;69.25;151256.66;10497773;28;20041;-73
2024/03/13 17:57:59;;;;;;;8.20;5.93;;;;;;;10.25;69.77;151252.81;10483693;28;20036;-73
2024/03/13 18:03:00;;;;;;;4.55;4.10;;;;;;;10.05;70.84;151201.16;10507757;28;20083;-73
2024/03/13 18:08:03;;;;;;;5.60;4.40;;;;;;;9.90;71.63;151162.41;10488593;28;20041;-73
2024/03/13 18:13:05;;;;;;;5.10;4.30;;;;;;;9.65;72.81;151100.50;10488210;28;20040;-72
2024/03/13 18:18:10;;;;;;;4.65;3.50;;;;;;;9.66;72.74;151101.78;10505580;28;20087;-72
2024/03/13 18:23:12;;;;;;;4.95;3.95;;;;;;;9.49;73.54;151059.22;10506468;28;20127;-72
2024/03/13 18:28:14;;;;;;;4.30;3.38;;;;;;;9.40;73.96;151037.28;10504676;28;20161;-72
2024/03/13 18:33:15;;;;;;;5.00;3.47;;;;;;;9.33;74.37;151019.19;10471283;28;20094;-72
2024/03/13 18:38:21;;;;;;;4.90;3.88;;;;;;;9.07;75.81;150954.75;10463759;28;20052;-72
2024/03/13 18:43:22;;;;;;;4.53;3.67;;;;;;;9.09;75.48;150959.88;10462635;28;20119;-71
2024/03/13 18:48:24;;;;;;;4.28;3.58;;;;;;;8.94;76.08;150919.88;10463461;28;20091;-72
2024/03/13 18:53:26;;;;;;;5.20;3.90;;;;;;;8.80;76.17;150886.34;10463184;28;20044;-74
2024/03/13 18:58:28;;;;;;;4.72;4.00;;;;;;;8.62;77.27;150838.66;10464206;28;20045;-72
2024/03/13 19:03:30;;;;;;;6.30;4.03;;;;;;;8.56;77.37;150825.78;10462293;28;20049;-73
2024/03/13 19:08:32;;;;;;;4.70;3.22;;;;;;;8.42;77.84;150788.41;10461035;28;20124;-72
2024/03/13 19:13:35;;;;;;;5.00;3.80;;;;;;;8.24;79.05;150743.25;10463445;28;20044;-73
2024/03/13 19:18:39;;;;;;;4.70;3.60;;;;;;;8.25;78.73;150747.09;10463678;28;20040;-73
2024/03/13 19:23:43;;;;;;;5.30;4.03;;;;;;;8.33;78.52;150767.72;10462879;28;20102;-73
2024/03/13 19:28:45;;;;;;;5.03;4.00;;;;;;;8.21;78.36;150736.78;10462659;28;20045;-73
2024/03/13 19:33:47;;;;;;;5.53;3.90;;;;;;;8.20;78.90;150732.94;10461901;28;20040;-74
2024/03/13 19:38:49;;;;;;;3.67;2.90;;;;;;;8.16;78.79;150723.91;10461904;28;20136;-73
2024/03/13 19:43:51;;;;;;;4.15;3.75;;;;;;;7.98;79.85;150677.53;10461265;28;20041;-73
2024/03/13 19:48:56;;;;;;;5.07;3.65;;;;;;;8.00;79.31;150683.94;10455835;28;20477;-73
2024/03/13 19:53:58;;;;;;;5.45;3.40;;;;;;;7.96;79.56;150672.34;10441250;28;20063;-74
2024/03/13 19:59:00;;;;;;;4.72;3.40;;;;;;;8.05;78.60;150696.81;10460880;28;20040;-75
2024/03/13 20:04:02;;;;;;;4.90;3.65;;;;;;;8.02;78.79;150689.13;10460289;28;20052;-74
2024/03/13 20:09:04;;;;;;;5.22;3.53;;;;;;;7.89;79.71;150655.59;10461597;28;20045;-73
2024/03/13 20:14:06;;;;;;;5.85;4.03;;;;;;;7.90;80.03;150656.91;10461202;28;20416;-74
2024/03/13 20:19:09;;;;;;;4.63;3.47;;;;;;;8.02;79.10;150689.13;10460986;28;20090;-73
2024/03/13 20:24:11;;;;;;;3.47;3.05;;;;;;;8.16;78.98;150722.63;10460670;28;20041;-74
2024/03/13 20:29:14;;;;;;;4.47;3.10;;;;;;;8.09;79.29;150707.13;10444507;28;20033;-74
2024/03/13 20:34:15;;;;;;;4.47;2.80;;;;;;;8.15;79.04;150721.34;10460950;28;20045;-75
2024/03/13 20:39:18;;;;;;;4.90;3.58;;;;;;;8.14;79.42;150718.72;10461994;28;20437;-76
2024/03/13 20:44:21;;;;;;;3.53;2.97;;;;;;;8.34;78.31;150769.00;10462496;28;20082;-76
2024/03/13 20:49:23;;;;;;;3.30;2.60;;;;;;;8.34;78.54;150769.00;10440625;28;20104;-74
2024/03/13 20:54:25;;;;;;;3.67;2.83;;;;;;;8.47;78.01;150801.28;10459166;28;20049;-73
2024/03/13 20:59:30;;;;;;;3.15;2.60;;;;;;;8.41;78.99;150787.13;10441096;28;20063;-74
2024/03/13 21:04:31;;;;;;;3.05;2.45;;;;;;;8.53;78.37;150818.03;10441266;28;20412;-75
2024/03/13 21:09:34;;;;;;;3.42;2.67;;;;;;;8.55;78.01;150821.94;10459140;28;20041;-74
2024/03/13 21:14:35;;;;;;;4.93;3.80;;;;;;;8.66;77.88;150848.97;10442079;28;20052;-74
2024/03/13 21:19:37;;;;;;;5.07;3.72;;;;;;;8.48;79.05;150805.13;10458040;28;20068;-74
2024/03/13 21:24:39;;;;;;;3.83;2.65;;;;;;;8.41;78.94;150787.13;10458441;28;20076;-74
2024/03/13 21:29:41;;;;;;;4.85;3.83;;;;;;;8.38;79.11;150778.09;10458158;28;20087;-74
2024/03/13 21:34:43;;;;;;;4.45;3.00;;;;;;;8.25;79.87;150745.81;10456835;28;20037;-74
2024/03/13 21:39:45;;;;;;;5.10;3.95;;;;;;;8.34;78.99;150769.00;10456937;28;20071;-73
2024/03/13 21:44:46;;;;;;;3.88;3.10;;;;;;;8.29;80.06;150757.41;10456560;28;20094;-72
2024/03/13 21:49:49;;;;;;;4.13;3.05;;;;;;;8.34;79.51;150769.00;10456260;28;20033;-72
2024/03/13 21:54:51;;;;;;;3.78;2.75;;;;;;;8.38;79.53;150778.09;10455995;28;20041;-74
2024/03/13 21:59:53;;;;;;;3.55;2.47;;;;;;;8.45;79.55;150797.38;10456729;28;20199;-74
2024/03/13 22:04:55;;;;;;;4.13;3.03;;;;;;;8.48;79.70;150803.84;10457488;28;20112;-72
2024/03/13 22:09:57;;;;;;;3.53;2.67;;;;;;;8.66;79.43;150850.25;10456477;28;20048;-73
2024/03/13 22:15:04;;;;;;;3.50;2.97;;;;;;;8.58;79.91;150830.91;10455789;28;20131;-72
2024/03/13 22:20:07;;;;;;;4.15;2.63;;;;;;;8.63;80.11;150842.50;10438714;28;20037;-72
2024/03/13 22:25:09;;;;;;;3.60;2.42;;;;;;;8.47;81.89;150801.28;10456007;28;20056;-72
2024/03/13 22:30:11;;;;;;;2.90;2.38;;;;;;;8.68;80.59;150854.16;10437695;28;20041;-73
2024/03/13 22:35:14;;;;;;;3.25;2.63;;;;;;;8.68;80.71;150854.16;10455592;28;20064;-73
2024/03/13 22:40:19;;;;;;;3.45;2.42;;;;;;;8.73;80.78;150867.06;10455615;28;20061;-73
2024/03/13 22:45:22;;;;;;;3.67;3.03;;;;;;;8.52;81.64;150814.19;10460950;28;20041;-73
2024/03/13 22:50:24;;;;;;;2.83;2.13;;;;;;;8.53;82.02;150816.75;10462902;28;20123;-73
2024/03/13 22:55:26;;;;;;;4.82;3.13;;;;;;;8.46;82.87;150798.72;10464641;28;20127;-72
2024/03/13 23:05:31;;;;;;;2.92;2.28;;;;;;;8.41;83.92;150787.13;10462509;28;20496;-73
2024/03/13 23:10:33;;;;;;;3.20;2.30;;;;;;;8.40;83.96;150783.22;10463506;28;20040;-73
2024/03/13 23:15:35;;;;;;;4.85;3.45;;;;;;;8.41;83.97;150787.13;10465774;28;20480;-73
2024/03/13 23:20:37;;;;;;;4.15;2.90;;;;;;;8.33;84.41;150767.72;10462021;28;20037;-72
2024/03/13 23:25:39;;;;;;;4.10;3.05;;;;;;;8.31;84.93;150761.25;10463064;28;20071;-72
2024/03/13 23:30:40;;;;;;;3.97;3.30;;;;;;;8.21;85.50;150736.78;10461298;28;20087;-73
2024/03/13 23:35:42;;;;;;;4.30;3.33;;;;;;;8.43;83.64;150790.97;10461299;28;20045;-73
2024/03/13 23:40:44;;;;;;;3.30;2.70;;;;;;;8.41;84.18;150787.13;10460950;28;20048;-73
2024/03/13 23:45:46;;;;;;;3.50;2.90;;;;;;;8.45;83.88;150796.09;10460828;28;20045;-73